sensor_id;sensor_type;location;lat;lon;timestamp;P1;durP1;ratioP1;P2;durP2;ratioP2
74383;SDS011;62824;52.994;-3.936;2023-04-25T00:01:20;5.50;;;3.28;;
74383;SDS011;62824;52.994;-3.936;2023-04-25T00:03:49;8.07;;;3.70;;
74383;SDS011;62824;52.994;-3.936;2023-04-25T00:06:15;6.78;;;3.38;;
74383;SDS011;62824;52.994;-3.936;2023-04-25T00:08:42;10.60;;;3.67;;
74383;SDS011;62824;52.994;-3.936;2023-04-25T00:11:08;6.75;;;3.58;;
74383;SDS011;62824;52.994;-3.936;2023-04-25T00:13:34;8.07;;;4.50;;
74383;SDS011;62824;52.994;-3.936;2023-04-25T00:16:00;7.72;;;3.63;;
74383;SDS011;62824;52.994;-3.936;2023-04-25T00:18:27;5.85;;;3.35;;
74383;SDS011;62824;52.994;-3.936;2023-04-25T00:20:58;7.65;;;3.17;;
74383;SDS011;62824;52.994;-3.936;2023-04-25T00:23:25;9.95;;;3.75;;
74383;SDS011;62824;52.994;-3.936;2023-04-25T00:25:51;7.30;;;3.58;;
74383;SDS011;62824;52.994;-3.936;2023-04-25T00:28:17;10.48;;;4.00;;
74383;SDS011;62824;52.994;-3.936;2023-04-25T00:30:42;9.63;;;3.47;;
74383;SDS011;62824;52.994;-3.936;2023-04-25T00:33:09;7.05;;;3.67;;
74383;SDS011;62824;52.994;-3.936;2023-04-25T00:35:35;8.00;;;3.53;;
74383;SDS011;62824;52.994;-3.936;2023-04-25T00:38:01;7.53;;;3.30;;
74383;SDS011;62824;52.994;-3.936;2023-04-25T00:40:28;9.50;;;4.25;;
74383;SDS011;62824;52.994;-3.936;2023-04-25T00:42:54;5.78;;;3.22;;
74383;SDS011;62824;52.994;-3.936;2023-04-25T00:45:20;9.80;;;3.80;;
74383;SDS011;62824;52.994;-3.936;2023-04-25T00:47:46;11.60;;;4.03;;
74383;SDS011;62824;52.994;-3.936;2023-04-25T00:50:12;6.57;;;3.10;;
74383;SDS011;62824;52.994;-3.936;2023-04-25T00:52:38;8.02;;;3.45;;
74383;SDS011;62824;52.994;-3.936;2023-04-25T00:55:06;6.28;;;3.10;;
74383;SDS011;62824;52.994;-3.936;2023-04-25T00:57:33;9.40;;;3.80;;
74383;SDS011;62824;52.994;-3.936;2023-04-25T00:59:59;6.82;;;3.13;;
74383;SDS011;62824;52.994;-3.936;2023-04-25T01:02:29;7.72;;;3.97;;
74383;SDS011;62824;52.994;-3.936;2023-04-25T01:04:56;8.63;;;3.30;;
74383;SDS011;62824;52.994;-3.936;2023-04-25T01:07:22;9.40;;;3.38;;
74383;SDS011;62824;52.994;-3.936;2023-04-25T01:09:49;7.45;;;3.70;;
74383;SDS011;62824;52.994;-3.936;2023-04-25T01:12:17;7.95;;;3.10;;
74383;SDS011;62824;52.994;-3.936;2023-04-25T01:14:43;8.55;;;3.42;;
74383;SDS011;62824;52.994;-3.936;2023-04-25T01:17:09;8.27;;;2.92;;
74383;SDS011;62824;52.994;-3.936;2023-04-25T01:19:35;5.40;;;2.88;;
74383;SDS011;62824;52.994;-3.936;2023-04-25T01:22:02;8.02;;;3.67;;
74383;SDS011;62824;52.994;-3.936;2023-04-25T01:24:28;9.82;;;3.35;;
74383;SDS011;62824;52.994;-3.936;2023-04-25T01:26:56;7.70;;;3.13;;
74383;SDS011;62824;52.994;-3.936;2023-04-25T01:29:23;8.23;;;2.65;;
74383;SDS011;62824;52.994;-3.936;2023-04-25T01:31:49;6.57;;;3.33;;
74383;SDS011;62824;52.994;-3.936;2023-04-25T01:34:17;6.18;;;3.20;;
74383;SDS011;62824;52.994;-3.936;2023-04-25T01:36:43;5.25;;;2.60;;
74383;SDS011;62824;52.994;-3.936;2023-04-25T01:39:09;5.03;;;2.80;;
74383;SDS011;62824;52.994;-3.936;2023-04-25T01:41:35;8.60;;;3.00;;
74383;SDS011;62824;52.994;-3.936;2023-04-25T01:44:01;6.85;;;2.75;;
74383;SDS011;62824;52.994;-3.936;2023-04-25T01:46:28;5.40;;;2.45;;
74383;SDS011;62824;52.994;-3.936;2023-04-25T01:48:54;7.20;;;2.78;;
74383;SDS011;62824;52.994;-3.936;2023-04-25T01:51:19;7.43;;;3.10;;
74383;SDS011;62824;52.994;-3.936;2023-04-25T01:53:45;6.57;;;3.20;;
74383;SDS011;62824;52.994;-3.936;2023-04-25T01:56:11;5.03;;;2.60;;
74383;SDS011;62824;52.994;-3.936;2023-04-25T01:58:38;5.32;;;2.80;;
74383;SDS011;62824;52.994;-3.936;2023-04-25T02:01:03;6.32;;;2.50;;
74383;SDS011;62824;52.994;-3.936;2023-04-25T02:03:30;10.85;;;3.08;;
74383;SDS011;62824;52.994;-3.936;2023-04-25T02:05:57;8.40;;;2.85;;
74383;SDS011;62824;52.994;-3.936;2023-04-25T02:08:22;7.43;;;3.03;;
74383;SDS011;62824;52.994;-3.936;2023-04-25T02:10:51;4.97;;;2.63;;
74383;SDS011;62824;52.994;-3.936;2023-04-25T02:13:16;8.95;;;3.15;;
74383;SDS011;62824;52.994;-3.936;2023-04-25T02:15:43;8.82;;;3.33;;
74383;SDS011;62824;52.994;-3.936;2023-04-25T02:18:09;8.35;;;2.85;;
74383;SDS011;62824;52.994;-3.936;2023-04-25T02:20:35;6.47;;;2.90;;
74383;SDS011;62824;52.994;-3.936;2023-04-25T02:23:01;7.90;;;3.08;;
74383;SDS011;62824;52.994;-3.936;2023-04-25T02:25:27;5.28;;;2.53;;
74383;SDS011;62824;52.994;-3.936;2023-04-25T02:27:56;7.15;;;2.60;;
74383;SDS011;62824;52.994;-3.936;2023-04-25T02:30:22;6.20;;;2.53;;
74383;SDS011;62824;52.994;-3.936;2023-04-25T02:32:48;3.83;;;2.28;;
74383;SDS011;62824;52.994;-3.936;2023-04-25T02:35:14;10.07;;;3.17;;
74383;SDS011;62824;52.994;-3.936;2023-04-25T02:37:39;8.57;;;3.20;;
74383;SDS011;62824;52.994;-3.936;2023-04-25T02:40:06;8.10;;;2.80;;
74383;SDS011;62824;52.994;-3.936;2023-04-25T02:42:32;7.85;;;3.03;;
74383;SDS011;62824;52.994;-3.936;2023-04-25T02:44:58;5.18;;;2.80;;
74383;SDS011;62824;52.994;-3.936;2023-04-25T02:47:24;6.88;;;2.53;;
74383;SDS011;62824;52.994;-3.936;2023-04-25T02:49:50;7.88;;;3.15;;
74383;SDS011;62824;52.994;-3.936;2023-04-25T02:52:16;5.82;;;2.15;;
74383;SDS011;62824;52.994;-3.936;2023-04-25T02:54:42;8.00;;;3.10;;
74383;SDS011;62824;52.994;-3.936;2023-04-25T02:57:08;7.55;;;2.92;;
74383;SDS011;62824;52.994;-3.936;2023-04-25T02:59:34;6.38;;;3.05;;
74383;SDS011;62824;52.994;-3.936;2023-04-25T03:02:00;8.13;;;2.50;;
74383;SDS011;62824;52.994;-3.936;2023-04-25T03:04:27;6.95;;;3.08;;
74383;SDS011;62824;52.994;-3.936;2023-04-25T03:06:53;6.50;;;2.90;;
74383;SDS011;62824;52.994;-3.936;2023-04-25T03:09:21;4.65;;;2.63;;
74383;SDS011;62824;52.994;-3.936;2023-04-25T03:11:47;6.55;;;2.85;;
74383;SDS011;62824;52.994;-3.936;2023-04-25T03:14:13;5.80;;;2.95;;
74383;SDS011;62824;52.994;-3.936;2023-04-25T03:16:40;8.02;;;3.00;;
74383;SDS011;62824;52.994;-3.936;2023-04-25T03:19:06;7.25;;;2.60;;
74383;SDS011;62824;52.994;-3.936;2023-04-25T03:21:32;9.35;;;2.88;;
74383;SDS011;62824;52.994;-3.936;2023-04-25T03:23:59;9.10;;;3.55;;
74383;SDS011;62824;52.994;-3.936;2023-04-25T03:26:25;7.78;;;2.95;;
74383;SDS011;62824;52.994;-3.936;2023-04-25T03:28:51;7.78;;;2.65;;
74383;SDS011;62824;52.994;-3.936;2023-04-25T03:31:17;8.85;;;3.15;;
74383;SDS011;62824;52.994;-3.936;2023-04-25T03:33:43;5.10;;;2.60;;
74383;SDS011;62824;52.994;-3.936;2023-04-25T03:36:09;9.88;;;2.70;;
74383;SDS011;62824;52.994;-3.936;2023-04-25T03:38:35;5.22;;;2.67;;
74383;SDS011;62824;52.994;-3.936;2023-04-25T03:41:01;7.38;;;3.10;;
74383;SDS011;62824;52.994;-3.936;2023-04-25T03:43:27;6.55;;;3.05;;
74383;SDS011;62824;52.994;-3.936;2023-04-25T03:45:53;8.68;;;3.30;;
74383;SDS011;62824;52.994;-3.936;2023-04-25T03:48:19;9.48;;;3.10;;
74383;SDS011;62824;52.994;-3.936;2023-04-25T03:50:47;6.72;;;3.45;;
74383;SDS011;62824;52.994;-3.936;2023-04-25T03:53:13;5.55;;;2.85;;
74383;SDS011;62824;52.994;-3.936;2023-04-25T03:55:39;7.70;;;3.75;;
74383;SDS011;62824;52.994;-3.936;2023-04-25T03:58:05;10.07;;;3.33;;
74383;SDS011;62824;52.994;-3.936;2023-04-25T04:00:31;8.35;;;2.63;;
74383;SDS011;62824;52.994;-3.936;2023-04-25T04:02:56;7.18;;;3.00;;
74383;SDS011;62824;52.994;-3.936;2023-04-25T04:05:22;5.72;;;2.35;;
74383;SDS011;62824;52.994;-3.936;2023-04-25T04:07:48;7.47;;;3.38;;
74383;SDS011;62824;52.994;-3.936;2023-04-25T04:10:15;8.27;;;2.65;;
74383;SDS011;62824;52.994;-3.936;2023-04-25T04:12:40;8.77;;;2.67;;
74383;SDS011;62824;52.994;-3.936;2023-04-25T04:15:06;10.68;;;2.70;;
74383;SDS011;62824;52.994;-3.936;2023-04-25T04:17:33;7.90;;;3.00;;
74383;SDS011;62824;52.994;-3.936;2023-04-25T04:19:59;5.18;;;3.17;;
74383;SDS011;62824;52.994;-3.936;2023-04-25T04:22:25;7.57;;;2.97;;
74383;SDS011;62824;52.994;-3.936;2023-04-25T04:24:51;6.70;;;2.75;;
74383;SDS011;62824;52.994;-3.936;2023-04-25T04:27:17;4.75;;;2.63;;
74383;SDS011;62824;52.994;-3.936;2023-04-25T04:29:44;8.02;;;2.80;;
74383;SDS011;62824;52.994;-3.936;2023-04-25T04:32:11;8.13;;;3.85;;
74383;SDS011;62824;52.994;-3.936;2023-04-25T04:34:38;5.28;;;2.85;;
74383;SDS011;62824;52.994;-3.936;2023-04-25T04:37:05;9.77;;;2.90;;
74383;SDS011;62824;52.994;-3.936;2023-04-25T04:39:32;5.32;;;2.80;;
74383;SDS011;62824;52.994;-3.936;2023-04-25T04:41:58;6.03;;;2.83;;
74383;SDS011;62824;52.994;-3.936;2023-04-25T04:44:26;7.18;;;3.17;;
74383;SDS011;62824;52.994;-3.936;2023-04-25T04:46:53;9.63;;;3.28;;
74383;SDS011;62824;52.994;-3.936;2023-04-25T04:49:20;5.88;;;3.13;;
74383;SDS011;62824;52.994;-3.936;2023-04-25T04:51:46;10.35;;;2.92;;
74383;SDS011;62824;52.994;-3.936;2023-04-25T04:54:12;7.30;;;3.17;;
74383;SDS011;62824;52.994;-3.936;2023-04-25T04:56:38;7.72;;;2.83;;
74383;SDS011;62824;52.994;-3.936;2023-04-25T04:59:04;11.35;;;3.70;;
74383;SDS011;62824;52.994;-3.936;2023-04-25T05:01:30;8.05;;;2.92;;
74383;SDS011;62824;52.994;-3.936;2023-04-25T05:03:56;6.05;;;3.00;;
74383;SDS011;62824;52.994;-3.936;2023-04-25T05:06:25;6.13;;;2.70;;
74383;SDS011;62824;52.994;-3.936;2023-04-25T05:08:54;5.95;;;3.17;;
74383;SDS011;62824;52.994;-3.936;2023-04-25T05:11:20;7.07;;;3.03;;
74383;SDS011;62824;52.994;-3.936;2023-04-25T05:13:48;11.07;;;3.38;;
74383;SDS011;62824;52.994;-3.936;2023-04-25T05:16:14;5.28;;;2.80;;
74383;SDS011;62824;52.994;-3.936;2023-04-25T05:18:40;5.80;;;2.70;;
74383;SDS011;62824;52.994;-3.936;2023-04-25T05:21:07;9.38;;;3.30;;
74383;SDS011;62824;52.994;-3.936;2023-04-25T05:23:33;7.47;;;3.00;;
74383;SDS011;62824;52.994;-3.936;2023-04-25T05:25:58;8.60;;;3.65;;
74383;SDS011;62824;52.994;-3.936;2023-04-25T05:28:25;7.18;;;2.38;;
74383;SDS011;62824;52.994;-3.936;2023-04-25T05:30:50;6.38;;;2.45;;
74383;SDS011;62824;52.994;-3.936;2023-04-25T05:33:16;11.45;;;3.25;;
74383;SDS011;62824;52.994;-3.936;2023-04-25T05:35:42;6.60;;;2.88;;
74383;SDS011;62824;52.994;-3.936;2023-04-25T05:38:08;6.60;;;3.22;;
74383;SDS011;62824;52.994;-3.936;2023-04-25T05:40:34;6.88;;;2.33;;
74383;SDS011;62824;52.994;-3.936;2023-04-25T05:43:00;7.88;;;3.15;;
74383;SDS011;62824;52.994;-3.936;2023-04-25T05:45:25;8.70;;;2.97;;
74383;SDS011;62824;52.994;-3.936;2023-04-25T05:47:51;5.43;;;2.72;;
74383;SDS011;62824;52.994;-3.936;2023-04-25T05:50:17;6.75;;;2.97;;
74383;SDS011;62824;52.994;-3.936;2023-04-25T05:52:43;6.32;;;3.03;;
74383;SDS011;62824;52.994;-3.936;2023-04-25T05:55:09;7.43;;;2.85;;
74383;SDS011;62824;52.994;-3.936;2023-04-25T05:57:34;8.50;;;3.42;;
74383;SDS011;62824;52.994;-3.936;2023-04-25T06:00:00;8.65;;;3.00;;
74383;SDS011;62824;52.994;-3.936;2023-04-25T06:02:26;8.93;;;3.17;;
74383;SDS011;62824;52.994;-3.936;2023-04-25T06:04:52;7.22;;;3.47;;
74383;SDS011;62824;52.994;-3.936;2023-04-25T06:07:18;8.32;;;2.90;;
74383;SDS011;62824;52.994;-3.936;2023-04-25T06:09:45;7.43;;;3.05;;
74383;SDS011;62824;52.994;-3.936;2023-04-25T06:12:11;11.55;;;3.10;;
74383;SDS011;62824;52.994;-3.936;2023-04-25T06:14:37;10.05;;;3.33;;
74383;SDS011;62824;52.994;-3.936;2023-04-25T06:17:02;7.78;;;3.22;;
74383;SDS011;62824;52.994;-3.936;2023-04-25T06:19:33;5.72;;;2.95;;
74383;SDS011;62824;52.994;-3.936;2023-04-25T06:22:00;6.85;;;3.30;;
74383;SDS011;62824;52.994;-3.936;2023-04-25T06:24:26;6.80;;;2.92;;
74383;SDS011;62824;52.994;-3.936;2023-04-25T06:26:52;10.63;;;3.45;;
74383;SDS011;62824;52.994;-3.936;2023-04-25T06:29:18;8.30;;;3.47;;
74383;SDS011;62824;52.994;-3.936;2023-04-25T06:31:44;9.43;;;4.38;;
74383;SDS011;62824;52.994;-3.936;2023-04-25T06:34:10;5.32;;;2.60;;
74383;SDS011;62824;52.994;-3.936;2023-04-25T06:36:35;6.88;;;2.58;;
74383;SDS011;62824;52.994;-3.936;2023-04-25T06:39:01;7.97;;;4.07;;
74383;SDS011;62824;52.994;-3.936;2023-04-25T06:41:27;6.65;;;2.65;;
74383;SDS011;62824;52.994;-3.936;2023-04-25T06:43:53;8.13;;;2.60;;
74383;SDS011;62824;52.994;-3.936;2023-04-25T06:46:19;11.40;;;3.67;;
74383;SDS011;62824;52.994;-3.936;2023-04-25T06:48:44;6.40;;;3.13;;
74383;SDS011;62824;52.994;-3.936;2023-04-25T06:51:10;7.18;;;2.60;;
74383;SDS011;62824;52.994;-3.936;2023-04-25T06:53:38;4.15;;;2.30;;
74383;SDS011;62824;52.994;-3.936;2023-04-25T06:56:04;7.05;;;2.95;;
74383;SDS011;62824;52.994;-3.936;2023-04-25T06:58:30;6.22;;;2.75;;
74383;SDS011;62824;52.994;-3.936;2023-04-25T07:00:56;7.63;;;3.35;;
74383;SDS011;62824;52.994;-3.936;2023-04-25T07:03:22;7.88;;;2.92;;
74383;SDS011;62824;52.994;-3.936;2023-04-25T07:05:47;7.60;;;3.17;;
74383;SDS011;62824;52.994;-3.936;2023-04-25T07:08:13;7.95;;;3.33;;
74383;SDS011;62824;52.994;-3.936;2023-04-25T07:10:39;5.65;;;2.95;;
74383;SDS011;62824;52.994;-3.936;2023-04-25T07:13:05;9.18;;;3.70;;
74383;SDS011;62824;52.994;-3.936;2023-04-25T07:15:30;8.38;;;3.40;;
74383;SDS011;62824;52.994;-3.936;2023-04-25T07:17:56;7.95;;;2.70;;
74383;SDS011;62824;52.994;-3.936;2023-04-25T07:20:22;7.47;;;2.83;;
74383;SDS011;62824;52.994;-3.936;2023-04-25T07:22:48;6.03;;;2.80;;
74383;SDS011;62824;52.994;-3.936;2023-04-25T07:25:15;8.90;;;3.85;;
74383;SDS011;62824;52.994;-3.936;2023-04-25T07:27:41;8.50;;;4.57;;
74383;SDS011;62824;52.994;-3.936;2023-04-25T07:30:07;6.82;;;2.83;;
74383;SDS011;62824;52.994;-3.936;2023-04-25T07:32:33;5.88;;;3.20;;
74383;SDS011;62824;52.994;-3.936;2023-04-25T07:34:59;6.90;;;3.45;;
74383;SDS011;62824;52.994;-3.936;2023-04-25T07:37:26;9.38;;;3.13;;
74383;SDS011;62824;52.994;-3.936;2023-04-25T07:39:52;10.68;;;3.42;;
74383;SDS011;62824;52.994;-3.936;2023-04-25T07:42:18;7.40;;;2.95;;
74383;SDS011;62824;52.994;-3.936;2023-04-25T07:44:44;11.80;;;3.28;;
74383;SDS011;62824;52.994;-3.936;2023-04-25T07:47:10;6.90;;;2.90;;
74383;SDS011;62824;52.994;-3.936;2023-04-25T07:49:36;9.40;;;2.92;;
74383;SDS011;62824;52.994;-3.936;2023-04-25T07:52:02;8.60;;;3.10;;
74383;SDS011;62824;52.994;-3.936;2023-04-25T07:54:30;9.20;;;3.42;;
74383;SDS011;62824;52.994;-3.936;2023-04-25T07:56:57;8.20;;;2.50;;
74383;SDS011;62824;52.994;-3.936;2023-04-25T07:59:23;9.38;;;2.55;;
74383;SDS011;62824;52.994;-3.936;2023-04-25T08:01:49;5.32;;;2.47;;
74383;SDS011;62824;52.994;-3.936;2023-04-25T08:04:15;6.13;;;2.58;;
74383;SDS011;62824;52.994;-3.936;2023-04-25T08:06:41;13.20;;;5.45;;
74383;SDS011;62824;52.994;-3.936;2023-04-25T08:09:08;6.72;;;3.53;;
74383;SDS011;62824;52.994;-3.936;2023-04-25T08:11:34;5.18;;;2.38;;
74383;SDS011;62824;52.994;-3.936;2023-04-25T08:14:00;8.20;;;3.15;;
74383;SDS011;62824;52.994;-3.936;2023-04-25T08:16:27;5.63;;;2.72;;
74383;SDS011;62824;52.994;-3.936;2023-04-25T08:18:53;11.82;;;3.75;;
74383;SDS011;62824;52.994;-3.936;2023-04-25T08:21:19;11.30;;;2.78;;
74383;SDS011;62824;52.994;-3.936;2023-04-25T08:23:45;7.78;;;2.50;;
74383;SDS011;62824;52.994;-3.936;2023-04-25T08:26:13;17.25;;;3.22;;
74383;SDS011;62824;52.994;-3.936;2023-04-25T08:28:38;8.00;;;2.38;;
74383;SDS011;62824;52.994;-3.936;2023-04-25T08:31:04;4.97;;;2.97;;
74383;SDS011;62824;52.994;-3.936;2023-04-25T08:33:30;7.18;;;2.80;;
74383;SDS011;62824;52.994;-3.936;2023-04-25T08:35:57;6.93;;;2.50;;
74383;SDS011;62824;52.994;-3.936;2023-04-25T08:38:24;7.55;;;2.40;;
74383;SDS011;62824;52.994;-3.936;2023-04-25T08:40:50;5.85;;;2.50;;
74383;SDS011;62824;52.994;-3.936;2023-04-25T08:43:19;7.45;;;2.78;;
74383;SDS011;62824;52.994;-3.936;2023-04-25T08:45:45;6.05;;;2.60;;
74383;SDS011;62824;52.994;-3.936;2023-04-25T08:48:13;8.10;;;2.90;;
74383;SDS011;62824;52.994;-3.936;2023-04-25T08:50:40;8.63;;;2.70;;
74383;SDS011;62824;52.994;-3.936;2023-04-25T08:53:17;9.98;;;2.60;;
74383;SDS011;62824;52.994;-3.936;2023-04-25T08:55:47;6.75;;;2.90;;
74383;SDS011;62824;52.994;-3.936;2023-04-25T08:58:13;5.97;;;2.38;;
74383;SDS011;62824;52.994;-3.936;2023-04-25T09:00:40;5.68;;;2.15;;
74383;SDS011;62824;52.994;-3.936;2023-04-25T09:03:06;5.63;;;2.13;;
74383;SDS011;62824;52.994;-3.936;2023-04-25T09:05:35;7.60;;;2.17;;
74383;SDS011;62824;52.994;-3.936;2023-04-25T09:08:01;5.85;;;2.20;;
74383;SDS011;62824;52.994;-3.936;2023-04-25T09:10:27;13.43;;;2.40;;
74383;SDS011;62824;52.994;-3.936;2023-04-25T09:13:06;8.18;;;2.50;;
74383;SDS011;62824;52.994;-3.936;2023-04-25T09:15:34;5.45;;;2.40;;
74383;SDS011;62824;52.994;-3.936;2023-04-25T09:18:26;13.52;;;6.63;;
74383;SDS011;62824;52.994;-3.936;2023-04-25T09:20:56;13.38;;;6.75;;
74383;SDS011;62824;52.994;-3.936;2023-04-25T09:23:30;9.00;;;3.65;;
74383;SDS011;62824;52.994;-3.936;2023-04-25T09:28:31;7.38;;;3.58;;
74383;SDS011;62824;52.994;-3.936;2023-04-25T09:30:57;5.10;;;2.10;;
74383;SDS011;62824;52.994;-3.936;2023-04-25T09:33:27;5.93;;;2.67;;
74383;SDS011;62824;52.994;-3.936;2023-04-25T09:35:56;5.60;;;2.20;;
74383;SDS011;62824;52.994;-3.936;2023-04-25T09:38:28;4.30;;;1.98;;
74383;SDS011;62824;52.994;-3.936;2023-04-25T09:40:56;6.55;;;2.25;;
74383;SDS011;62824;52.994;-3.936;2023-04-25T09:43:24;9.77;;;3.03;;
74383;SDS011;62824;52.994;-3.936;2023-04-25T09:45:51;12.52;;;3.10;;
74383;SDS011;62824;52.994;-3.936;2023-04-25T09:48:22;5.13;;;2.00;;
74383;SDS011;62824;52.994;-3.936;2023-04-25T09:53:34;4.15;;;2.00;;
74383;SDS011;62824;52.994;-3.936;2023-04-25T09:56:05;3.85;;;2.25;;
74383;SDS011;62824;52.994;-3.936;2023-04-25T09:58:33;3.20;;;1.90;;
74383;SDS011;62824;52.994;-3.936;2023-04-25T10:01:01;3.05;;;1.75;;
74383;SDS011;62824;52.994;-3.936;2023-04-25T10:03:32;5.03;;;2.10;;
74383;SDS011;62824;52.994;-3.936;2023-04-25T10:06:01;4.50;;;1.95;;
74383;SDS011;62824;52.994;-3.936;2023-04-25T10:08:33;6.10;;;1.80;;
74383;SDS011;62824;52.994;-3.936;2023-04-25T10:11:03;5.07;;;1.60;;
74383;SDS011;62824;52.994;-3.936;2023-04-25T10:13:30;5.30;;;2.08;;
74383;SDS011;62824;52.994;-3.936;2023-04-25T10:15:58;12.95;;;2.58;;
74383;SDS011;62824;52.994;-3.936;2023-04-25T10:18:26;5.97;;;2.13;;
74383;SDS011;62824;52.994;-3.936;2023-04-25T10:20:57;3.40;;;1.70;;
74383;SDS011;62824;52.994;-3.936;2023-04-25T10:23:25;8.52;;;2.20;;
74383;SDS011;62824;52.994;-3.936;2023-04-25T10:25:52;3.80;;;1.80;;
74383;SDS011;62824;52.994;-3.936;2023-04-25T10:28:19;4.47;;;1.95;;
74383;SDS011;62824;52.994;-3.936;2023-04-25T10:30:58;7.07;;;2.00;;
74383;SDS011;62824;52.994;-3.936;2023-04-25T10:33:40;12.57;;;2.65;;
74383;SDS011;62824;52.994;-3.936;2023-04-25T10:36:17;5.30;;;1.85;;
74383;SDS011;62824;52.994;-3.936;2023-04-25T10:38:44;3.50;;;1.65;;
74383;SDS011;62824;52.994;-3.936;2023-04-25T10:41:12;6.32;;;1.80;;
74383;SDS011;62824;52.994;-3.936;2023-04-25T10:43:39;4.53;;;1.90;;
74383;SDS011;62824;52.994;-3.936;2023-04-25T10:46:13;4.53;;;1.80;;
74383;SDS011;62824;52.994;-3.936;2023-04-25T10:48:46;2.30;;;1.52;;
74383;SDS011;62824;52.994;-3.936;2023-04-25T10:54:03;3.28;;;1.60;;
74383;SDS011;62824;52.994;-3.936;2023-04-25T10:56:29;4.65;;;1.75;;
74383;SDS011;62824;52.994;-3.936;2023-04-25T11:01:44;3.60;;;1.70;;
74383;SDS011;62824;52.994;-3.936;2023-04-25T11:04:20;3.72;;;1.80;;
74383;SDS011;62824;52.994;-3.936;2023-04-25T11:09:49;7.40;;;1.90;;
74383;SDS011;62824;52.994;-3.936;2023-04-25T11:12:15;7.85;;;2.00;;
74383;SDS011;62824;52.994;-3.936;2023-04-25T11:14:42;3.50;;;1.83;;
74383;SDS011;62824;52.994;-3.936;2023-04-25T11:17:08;3.60;;;1.75;;
74383;SDS011;62824;52.994;-3.936;2023-04-25T11:19:35;5.57;;;1.95;;
74383;SDS011;62824;52.994;-3.936;2023-04-25T11:22:01;2.67;;;1.95;;
74383;SDS011;62824;52.994;-3.936;2023-04-25T11:24:32;2.63;;;1.58;;
74383;SDS011;62824;52.994;-3.936;2023-04-25T11:27:02;5.22;;;1.90;;
74383;SDS011;62824;52.994;-3.936;2023-04-25T11:29:32;6.85;;;2.05;;
74383;SDS011;62824;52.994;-3.936;2023-04-25T11:31:59;5.72;;;1.70;;
74383;SDS011;62824;52.994;-3.936;2023-04-25T11:34:26;11.07;;;2.30;;
74383;SDS011;62824;52.994;-3.936;2023-04-25T11:36:55;4.68;;;2.38;;
74383;SDS011;62824;52.994;-3.936;2023-04-25T11:39:21;6.43;;;2.03;;
74383;SDS011;62824;52.994;-3.936;2023-04-25T11:41:49;4.93;;;2.78;;
74383;SDS011;62824;52.994;-3.936;2023-04-25T11:44:15;2.90;;;1.80;;
74383;SDS011;62824;52.994;-3.936;2023-04-25T11:46:43;8.07;;;2.10;;
74383;SDS011;62824;52.994;-3.936;2023-04-25T11:49:09;5.85;;;1.88;;
74383;SDS011;62824;52.994;-3.936;2023-04-25T11:51:39;3.33;;;1.80;;
74383;SDS011;62824;52.994;-3.936;2023-04-25T11:54:06;7.25;;;1.77;;
74383;SDS011;62824;52.994;-3.936;2023-04-25T11:56:32;3.63;;;1.60;;
74383;SDS011;62824;52.994;-3.936;2023-04-25T11:59:02;3.70;;;1.80;;
74383;SDS011;62824;52.994;-3.936;2023-04-25T12:01:30;2.88;;;1.67;;
74383;SDS011;62824;52.994;-3.936;2023-04-25T12:03:57;3.50;;;2.15;;
74383;SDS011;62824;52.994;-3.936;2023-04-25T12:06:37;2.72;;;1.67;;
74383;SDS011;62824;52.994;-3.936;2023-04-25T12:09:10;5.82;;;2.13;;
74383;SDS011;62824;52.994;-3.936;2023-04-25T12:11:41;3.17;;;2.10;;
74383;SDS011;62824;52.994;-3.936;2023-04-25T12:14:11;2.55;;;1.58;;
74383;SDS011;62824;52.994;-3.936;2023-04-25T12:16:45;2.63;;;1.60;;
74383;SDS011;62824;52.994;-3.936;2023-04-25T12:19:15;6.28;;;2.55;;
74383;SDS011;62824;52.994;-3.936;2023-04-25T12:21:42;5.63;;;2.00;;
74383;SDS011;62824;52.994;-3.936;2023-04-25T12:24:12;2.08;;;1.42;;
74383;SDS011;62824;52.994;-3.936;2023-04-25T12:29:31;6.85;;;3.75;;
74383;SDS011;62824;52.994;-3.936;2023-04-25T12:31:58;3.92;;;1.83;;
74383;SDS011;62824;52.994;-3.936;2023-04-25T12:34:24;7.00;;;2.17;;
74383;SDS011;62824;52.994;-3.936;2023-04-25T12:36:51;5.38;;;2.00;;
74383;SDS011;62824;52.994;-3.936;2023-04-25T12:39:18;6.32;;;2.08;;
74383;SDS011;62824;52.994;-3.936;2023-04-25T12:41:45;2.13;;;1.75;;
74383;SDS011;62824;52.994;-3.936;2023-04-25T12:44:11;3.30;;;1.85;;
74383;SDS011;62824;52.994;-3.936;2023-04-25T12:46:38;8.18;;;2.50;;
74383;SDS011;62824;52.994;-3.936;2023-04-25T12:49:04;4.13;;;2.10;;
74383;SDS011;62824;52.994;-3.936;2023-04-25T12:51:33;2.92;;;1.58;;
74383;SDS011;62824;52.994;-3.936;2023-04-25T12:54:00;5.22;;;1.67;;
74383;SDS011;62824;52.994;-3.936;2023-04-25T12:56:26;4.82;;;2.67;;
74383;SDS011;62824;52.994;-3.936;2023-04-25T12:58:53;2.40;;;1.90;;
74383;SDS011;62824;52.994;-3.936;2023-04-25T13:01:19;4.05;;;1.75;;
74383;SDS011;62824;52.994;-3.936;2023-04-25T13:03:45;3.70;;;1.88;;
74383;SDS011;62824;52.994;-3.936;2023-04-25T13:06:11;4.90;;;2.00;;
74383;SDS011;62824;52.994;-3.936;2023-04-25T13:08:38;5.15;;;1.90;;
74383;SDS011;62824;52.994;-3.936;2023-04-25T13:11:04;3.95;;;2.08;;
74383;SDS011;62824;52.994;-3.936;2023-04-25T13:13:31;2.65;;;2.00;;
74383;SDS011;62824;52.994;-3.936;2023-04-25T13:15:57;3.13;;;1.80;;
74383;SDS011;62824;52.994;-3.936;2023-04-25T13:18:23;5.90;;;2.58;;
74383;SDS011;62824;52.994;-3.936;2023-04-25T13:20:52;4.53;;;1.95;;
74383;SDS011;62824;52.994;-3.936;2023-04-25T13:23:18;4.53;;;1.80;;
74383;SDS011;62824;52.994;-3.936;2023-04-25T13:25:45;13.45;;;2.63;;
74383;SDS011;62824;52.994;-3.936;2023-04-25T13:28:11;4.25;;;2.35;;
74383;SDS011;62824;52.994;-3.936;2023-04-25T13:30:38;6.13;;;2.88;;
74383;SDS011;62824;52.994;-3.936;2023-04-25T13:33:03;4.68;;;2.47;;
74383;SDS011;62824;52.994;-3.936;2023-04-25T13:35:32;4.53;;;2.60;;
74383;SDS011;62824;52.994;-3.936;2023-04-25T13:37:59;3.33;;;1.90;;
74383;SDS011;62824;52.994;-3.936;2023-04-25T13:40:25;6.55;;;3.50;;
74383;SDS011;62824;52.994;-3.936;2023-04-25T13:42:52;6.05;;;2.03;;
74383;SDS011;62824;52.994;-3.936;2023-04-25T13:45:18;6.00;;;2.83;;
74383;SDS011;62824;52.994;-3.936;2023-04-25T13:47:44;4.88;;;2.38;;
74383;SDS011;62824;52.994;-3.936;2023-04-25T13:50:10;7.28;;;2.38;;
74383;SDS011;62824;52.994;-3.936;2023-04-25T13:52:36;6.05;;;3.58;;
74383;SDS011;62824;52.994;-3.936;2023-04-25T13:55:02;2.80;;;1.85;;
74383;SDS011;62824;52.994;-3.936;2023-04-25T13:57:30;7.50;;;2.20;;
74383;SDS011;62824;52.994;-3.936;2023-04-25T13:59:59;2.30;;;1.60;;
74383;SDS011;62824;52.994;-3.936;2023-04-25T14:04:55;6.45;;;2.03;;
74383;SDS011;62824;52.994;-3.936;2023-04-25T14:07:21;6.55;;;2.20;;
74383;SDS011;62824;52.994;-3.936;2023-04-25T14:09:47;3.20;;;2.00;;
74383;SDS011;62824;52.994;-3.936;2023-04-25T14:12:13;2.08;;;1.73;;
74383;SDS011;62824;52.994;-3.936;2023-04-25T14:14:38;3.83;;;2.03;;
74383;SDS011;62824;52.994;-3.936;2023-04-25T14:17:04;3.63;;;1.85;;
74383;SDS011;62824;52.994;-3.936;2023-04-25T14:19:31;4.95;;;1.90;;
74383;SDS011;62824;52.994;-3.936;2023-04-25T14:21:57;3.63;;;2.00;;
74383;SDS011;62824;52.994;-3.936;2023-04-25T14:24:23;6.78;;;2.20;;
74383;SDS011;62824;52.994;-3.936;2023-04-25T14:26:49;10.00;;;2.25;;
74383;SDS011;62824;52.994;-3.936;2023-04-25T14:29:15;4.22;;;1.83;;
74383;SDS011;62824;52.994;-3.936;2023-04-25T14:31:41;4.88;;;1.83;;
74383;SDS011;62824;52.994;-3.936;2023-04-25T14:34:07;3.63;;;1.73;;
74383;SDS011;62824;52.994;-3.936;2023-04-25T14:36:33;3.95;;;2.15;;
74383;SDS011;62824;52.994;-3.936;2023-04-25T14:38:59;5.65;;;2.22;;
74383;SDS011;62824;52.994;-3.936;2023-04-25T14:41:26;3.85;;;1.73;;
74383;SDS011;62824;52.994;-3.936;2023-04-25T14:43:52;5.30;;;2.08;;
74383;SDS011;62824;52.994;-3.936;2023-04-25T14:46:21;5.80;;;1.80;;
74383;SDS011;62824;52.994;-3.936;2023-04-25T14:48:48;8.10;;;2.22;;
74383;SDS011;62824;52.994;-3.936;2023-04-25T14:51:14;3.92;;;2.10;;